sensor_id;sensor_type;location;lat;lon;timestamp;P1;durP1;ratioP1;P2;durP2;ratioP2
23060;SDS011;11698;47.690;9.132;2022-10-14T00:02:20;6.13;;;3.40;;
23060;SDS011;11698;47.690;9.132;2022-10-14T00:04:46;5.45;;;3.70;;
23060;SDS011;11698;47.690;9.132;2022-10-14T00:07:12;6.40;;;3.38;;
23060;SDS011;11698;47.690;9.132;2022-10-14T00:09:38;5.45;;;3.20;;
23060;SDS011;11698;47.690;9.132;2022-10-14T00:12:06;6.82;;;3.58;;
23060;SDS011;11698;47.690;9.132;2022-10-14T00:14:32;6.63;;;4.10;;
23060;SDS011;11698;47.690;9.132;2022-10-14T00:16:58;5.45;;;3.65;;
23060;SDS011;11698;47.690;9.132;2022-10-14T00:19:24;5.65;;;3.88;;
23060;SDS011;11698;47.690;9.132;2022-10-14T00:21:50;6.55;;;3.40;;
23060;SDS011;11698;47.690;9.132;2022-10-14T00:24:16;5.93;;;3.87;;
23060;SDS011;11698;47.690;9.132;2022-10-14T00:26:43;5.10;;;3.45;;
23060;SDS011;11698;47.690;9.132;2022-10-14T00:29:13;6.85;;;3.33;;
23060;SDS011;11698;47.690;9.132;2022-10-14T00:31:40;6.70;;;3.35;;
23060;SDS011;11698;47.690;9.132;2022-10-14T00:34:06;7.00;;;3.30;;
23060;SDS011;11698;47.690;9.132;2022-10-14T00:36:32;5.03;;;3.15;;
23060;SDS011;11698;47.690;9.132;2022-10-14T00:38:58;5.03;;;3.17;;
23060;SDS011;11698;47.690;9.132;2022-10-14T00:41:26;6.65;;;3.20;;
23060;SDS011;11698;47.690;9.132;2022-10-14T00:46:18;6.40;;;3.40;;
23060;SDS011;11698;47.690;9.132;2022-10-14T00:48:44;5.75;;;3.20;;
23060;SDS011;11698;47.690;9.132;2022-10-14T00:51:10;5.35;;;3.47;;
23060;SDS011;11698;47.690;9.132;2022-10-14T00:53:37;6.43;;;3.70;;
23060;SDS011;11698;47.690;9.132;2022-10-14T00:56:03;6.57;;;3.50;;
23060;SDS011;11698;47.690;9.132;2022-10-14T00:58:29;6.78;;;3.25;;
23060;SDS011;11698;47.690;9.132;2022-10-14T01:00:55;7.13;;;3.67;;
23060;SDS011;11698;47.690;9.132;2022-10-14T01:03:22;4.25;;;3.33;;
23060;SDS011;11698;47.690;9.132;2022-10-14T01:05:50;7.78;;;3.70;;
23060;SDS011;11698;47.690;9.132;2022-10-14T01:08:21;6.57;;;3.60;;
23060;SDS011;11698;47.690;9.132;2022-10-14T01:11:03;5.68;;;3.42;;
23060;SDS011;11698;47.690;9.132;2022-10-14T01:13:36;5.35;;;3.95;;
23060;SDS011;11698;47.690;9.132;2022-10-14T01:16:09;5.30;;;3.70;;
23060;SDS011;11698;47.690;9.132;2022-10-14T01:21:22;6.70;;;3.63;;
23060;SDS011;11698;47.690;9.132;2022-10-14T01:26:34;6.33;;;3.50;;
23060;SDS011;11698;47.690;9.132;2022-10-14T01:32:12;6.82;;;3.38;;
23060;SDS011;11698;47.690;9.132;2022-10-14T01:34:51;6.50;;;3.40;;
23060;SDS011;11698;47.690;9.132;2022-10-14T01:37:20;8.52;;;3.60;;
23060;SDS011;11698;47.690;9.132;2022-10-14T01:39:50;5.82;;;3.65;;
23060;SDS011;11698;47.690;9.132;2022-10-14T01:42:18;4.97;;;3.42;;
23060;SDS011;11698;47.690;9.132;2022-10-14T01:44:47;6.13;;;3.50;;
23060;SDS011;11698;47.690;9.132;2022-10-14T01:47:15;5.85;;;3.80;;
23060;SDS011;11698;47.690;9.132;2022-10-14T01:49:45;5.45;;;3.25;;
23060;SDS011;11698;47.690;9.132;2022-10-14T01:52:22;4.60;;;3.40;;
23060;SDS011;11698;47.690;9.132;2022-10-14T01:54:51;6.73;;;3.60;;
23060;SDS011;11698;47.690;9.132;2022-10-14T01:57:19;9.00;;;3.40;;
23060;SDS011;11698;47.690;9.132;2022-10-14T01:59:46;4.97;;;3.25;;
23060;SDS011;11698;47.690;9.132;2022-10-14T02:02:13;5.33;;;3.37;;
23060;SDS011;11698;47.690;9.132;2022-10-14T02:04:39;4.75;;;3.70;;
23060;SDS011;11698;47.690;9.132;2022-10-14T02:17:21;6.80;;;3.53;;
23060;SDS011;11698;47.690;9.132;2022-10-14T02:19:59;5.97;;;3.43;;
23060;SDS011;11698;47.690;9.132;2022-10-14T02:22:27;4.72;;;3.20;;
23060;SDS011;11698;47.690;9.132;2022-10-14T02:24:58;6.60;;;3.30;;
23060;SDS011;11698;47.690;9.132;2022-10-14T02:27:25;4.85;;;2.80;;
23060;SDS011;11698;47.690;9.132;2022-10-14T02:29:52;6.35;;;3.35;;
23060;SDS011;11698;47.690;9.132;2022-10-14T02:32:19;6.75;;;3.38;;
23060;SDS011;11698;47.690;9.132;2022-10-14T02:34:47;7.07;;;3.35;;
23060;SDS011;11698;47.690;9.132;2022-10-14T02:37:14;4.85;;;3.25;;
23060;SDS011;11698;47.690;9.132;2022-10-14T02:39:52;6.57;;;3.50;;
23060;SDS011;11698;47.690;9.132;2022-10-14T02:42:20;6.05;;;3.40;;
23060;SDS011;11698;47.690;9.132;2022-10-14T02:44:53;5.15;;;3.30;;
23060;SDS011;11698;47.690;9.132;2022-10-14T02:47:20;5.90;;;3.40;;
23060;SDS011;11698;47.690;9.132;2022-10-14T02:49:49;5.30;;;3.30;;
23060;SDS011;11698;47.690;9.132;2022-10-14T02:52:15;5.38;;;3.40;;
23060;SDS011;11698;47.690;9.132;2022-10-14T02:54:41;5.75;;;3.38;;
23060;SDS011;11698;47.690;9.132;2022-10-14T02:57:08;8.18;;;4.00;;
23060;SDS011;11698;47.690;9.132;2022-10-14T02:59:34;5.47;;;3.30;;
23060;SDS011;11698;47.690;9.132;2022-10-14T03:02:00;5.63;;;3.33;;
23060;SDS011;11698;47.690;9.132;2022-10-14T03:04:26;5.22;;;3.45;;
23060;SDS011;11698;47.690;9.132;2022-10-14T03:06:52;5.30;;;3.73;;
23060;SDS011;11698;47.690;9.132;2022-10-14T03:09:18;6.90;;;3.78;;
23060;SDS011;11698;47.690;9.132;2022-10-14T03:11:44;4.63;;;3.58;;
23060;SDS011;11698;47.690;9.132;2022-10-14T03:14:10;6.15;;;3.50;;
23060;SDS011;11698;47.690;9.132;2022-10-14T03:16:36;7.75;;;3.60;;
23060;SDS011;11698;47.690;9.132;2022-10-14T03:19:02;7.85;;;4.05;;
23060;SDS011;11698;47.690;9.132;2022-10-14T03:21:28;5.93;;;3.95;;
23060;SDS011;11698;47.690;9.132;2022-10-14T03:23:54;6.00;;;4.00;;
23060;SDS011;11698;47.690;9.132;2022-10-14T03:26:20;6.28;;;3.97;;
23060;SDS011;11698;47.690;9.132;2022-10-14T03:28:47;9.27;;;4.33;;
23060;SDS011;11698;47.690;9.132;2022-10-14T03:31:13;6.97;;;3.90;;
23060;SDS011;11698;47.690;9.132;2022-10-14T03:33:39;8.05;;;4.07;;
23060;SDS011;11698;47.690;9.132;2022-10-14T03:36:05;9.45;;;4.38;;
23060;SDS011;11698;47.690;9.132;2022-10-14T03:38:32;11.00;;;4.87;;
23060;SDS011;11698;47.690;9.132;2022-10-14T03:40:57;9.85;;;4.47;;
23060;SDS011;11698;47.690;9.132;2022-10-14T03:43:24;8.93;;;4.78;;
23060;SDS011;11698;47.690;9.132;2022-10-14T03:45:50;10.27;;;5.35;;
23060;SDS011;11698;47.690;9.132;2022-10-14T03:48:16;7.50;;;4.43;;
23060;SDS011;11698;47.690;9.132;2022-10-14T03:50:42;8.20;;;5.30;;
23060;SDS011;11698;47.690;9.132;2022-10-14T03:53:08;8.50;;;4.90;;
23060;SDS011;11698;47.690;9.132;2022-10-14T03:55:34;7.88;;;4.95;;
23060;SDS011;11698;47.690;9.132;2022-10-14T03:58:00;8.40;;;5.53;;
23060;SDS011;11698;47.690;9.132;2022-10-14T04:00:26;9.50;;;5.47;;
23060;SDS011;11698;47.690;9.132;2022-10-14T04:02:52;7.68;;;5.20;;
23060;SDS011;11698;47.690;9.132;2022-10-14T04:05:18;10.43;;;5.30;;
23060;SDS011;11698;47.690;9.132;2022-10-14T04:07:44;9.00;;;5.57;;
23060;SDS011;11698;47.690;9.132;2022-10-14T04:10:10;8.45;;;5.47;;
23060;SDS011;11698;47.690;9.132;2022-10-14T04:12:36;8.40;;;5.50;;
23060;SDS011;11698;47.690;9.132;2022-10-14T04:15:04;8.38;;;5.68;;
23060;SDS011;11698;47.690;9.132;2022-10-14T04:17:30;8.70;;;5.00;;
23060;SDS011;11698;47.690;9.132;2022-10-14T04:19:57;7.40;;;4.93;;
23060;SDS011;11698;47.690;9.132;2022-10-14T04:22:23;8.57;;;5.28;;
23060;SDS011;11698;47.690;9.132;2022-10-14T04:24:49;10.90;;;5.32;;
23060;SDS011;11698;47.690;9.132;2022-10-14T04:27:15;8.85;;;5.45;;
23060;SDS011;11698;47.690;9.132;2022-10-14T04:29:42;10.13;;;5.25;;
23060;SDS011;11698;47.690;9.132;2022-10-14T04:32:08;9.80;;;5.32;;
23060;SDS011;11698;47.690;9.132;2022-10-14T04:34:34;11.48;;;5.63;;
23060;SDS011;11698;47.690;9.132;2022-10-14T04:37:00;9.87;;;5.00;;
23060;SDS011;11698;47.690;9.132;2022-10-14T04:39:26;8.50;;;5.47;;
23060;SDS011;11698;47.690;9.132;2022-10-14T04:41:52;9.38;;;5.90;;
23060;SDS011;11698;47.690;9.132;2022-10-14T04:44:18;7.82;;;5.50;;
23060;SDS011;11698;47.690;9.132;2022-10-14T04:46:44;8.60;;;5.50;;
23060;SDS011;11698;47.690;9.132;2022-10-14T04:49:10;9.02;;;5.88;;
23060;SDS011;11698;47.690;9.132;2022-10-14T04:51:36;9.55;;;5.45;;
23060;SDS011;11698;47.690;9.132;2022-10-14T04:54:02;8.70;;;5.75;;
23060;SDS011;11698;47.690;9.132;2022-10-14T04:56:29;8.30;;;5.40;;
23060;SDS011;11698;47.690;9.132;2022-10-14T04:58:54;9.25;;;5.57;;
23060;SDS011;11698;47.690;9.132;2022-10-14T05:01:21;8.60;;;5.90;;
23060;SDS011;11698;47.690;9.132;2022-10-14T05:03:47;10.40;;;6.30;;
23060;SDS011;11698;47.690;9.132;2022-10-14T05:06:13;8.77;;;5.22;;
23060;SDS011;11698;47.690;9.132;2022-10-14T05:08:39;9.25;;;5.72;;
23060;SDS011;11698;47.690;9.132;2022-10-14T05:11:05;11.18;;;6.00;;
23060;SDS011;11698;47.690;9.132;2022-10-14T05:13:31;9.55;;;5.80;;
23060;SDS011;11698;47.690;9.132;2022-10-14T05:15:57;6.80;;;5.18;;
23060;SDS011;11698;47.690;9.132;2022-10-14T05:18:23;9.80;;;5.60;;
23060;SDS011;11698;47.690;9.132;2022-10-14T05:20:52;11.27;;;5.65;;
23060;SDS011;11698;47.690;9.132;2022-10-14T05:23:18;9.73;;;5.40;;
23060;SDS011;11698;47.690;9.132;2022-10-14T05:25:44;8.75;;;5.25;;
23060;SDS011;11698;47.690;9.132;2022-10-14T05:28:10;6.78;;;4.80;;
23060;SDS011;11698;47.690;9.132;2022-10-14T05:30:36;9.93;;;5.25;;
23060;SDS011;11698;47.690;9.132;2022-10-14T05:33:02;7.68;;;4.80;;
23060;SDS011;11698;47.690;9.132;2022-10-14T05:35:28;7.57;;;4.90;;
23060;SDS011;11698;47.690;9.132;2022-10-14T05:37:54;7.10;;;5.20;;
23060;SDS011;11698;47.690;9.132;2022-10-14T05:40:21;11.68;;;5.10;;
23060;SDS011;11698;47.690;9.132;2022-10-14T05:42:47;7.43;;;4.75;;
23060;SDS011;11698;47.690;9.132;2022-10-14T05:45:13;9.63;;;5.55;;
23060;SDS011;11698;47.690;9.132;2022-10-14T05:47:39;7.97;;;5.32;;
23060;SDS011;11698;47.690;9.132;2022-10-14T05:50:07;12.32;;;5.10;;
23060;SDS011;11698;47.690;9.132;2022-10-14T05:52:33;7.63;;;5.05;;
23060;SDS011;11698;47.690;9.132;2022-10-14T05:55:00;7.68;;;5.13;;
23060;SDS011;11698;47.690;9.132;2022-10-14T05:57:26;8.38;;;4.85;;
23060;SDS011;11698;47.690;9.132;2022-10-14T05:59:52;9.75;;;5.00;;
23060;SDS011;11698;47.690;9.132;2022-10-14T06:02:18;7.55;;;4.68;;
23060;SDS011;11698;47.690;9.132;2022-10-14T06:04:44;8.30;;;5.10;;
23060;SDS011;11698;47.690;9.132;2022-10-14T06:07:10;7.70;;;4.50;;
23060;SDS011;11698;47.690;9.132;2022-10-14T06:09:37;7.55;;;4.80;;
23060;SDS011;11698;47.690;9.132;2022-10-14T06:12:03;7.07;;;4.57;;
23060;SDS011;11698;47.690;9.132;2022-10-14T06:14:29;6.35;;;4.63;;
23060;SDS011;11698;47.690;9.132;2022-10-14T06:16:56;6.88;;;4.72;;
23060;SDS011;11698;47.690;9.132;2022-10-14T06:19:22;6.75;;;4.68;;
23060;SDS011;11698;47.690;9.132;2022-10-14T06:21:48;7.53;;;4.60;;
23060;SDS011;11698;47.690;9.132;2022-10-14T06:24:14;7.68;;;4.60;;
23060;SDS011;11698;47.690;9.132;2022-10-14T06:26:40;7.82;;;4.47;;
23060;SDS011;11698;47.690;9.132;2022-10-14T06:29:06;6.65;;;4.20;;
23060;SDS011;11698;47.690;9.132;2022-10-14T06:31:32;6.10;;;4.40;;
23060;SDS011;11698;47.690;9.132;2022-10-14T06:33:58;7.22;;;4.28;;
23060;SDS011;11698;47.690;9.132;2022-10-14T06:36:25;8.43;;;4.40;;
23060;SDS011;11698;47.690;9.132;2022-10-14T06:38:51;5.88;;;4.13;;
23060;SDS011;11698;47.690;9.132;2022-10-14T06:41:17;7.43;;;4.60;;
23060;SDS011;11698;47.690;9.132;2022-10-14T06:43:43;6.70;;;4.20;;
23060;SDS011;11698;47.690;9.132;2022-10-14T06:46:09;5.55;;;4.00;;
23060;SDS011;11698;47.690;9.132;2022-10-14T06:48:35;7.65;;;4.18;;
23060;SDS011;11698;47.690;9.132;2022-10-14T06:51:01;6.45;;;3.80;;
23060;SDS011;11698;47.690;9.132;2022-10-14T06:53:27;6.07;;;4.13;;
23060;SDS011;11698;47.690;9.132;2022-10-14T06:55:57;6.75;;;3.83;;
23060;SDS011;11698;47.690;9.132;2022-10-14T06:58:23;6.25;;;3.90;;
23060;SDS011;11698;47.690;9.132;2022-10-14T07:00:49;5.97;;;3.70;;
23060;SDS011;11698;47.690;9.132;2022-10-14T07:03:15;5.37;;;3.47;;
23060;SDS011;11698;47.690;9.132;2022-10-14T07:05:41;6.05;;;3.42;;
23060;SDS011;11698;47.690;9.132;2022-10-14T07:08:07;3.90;;;3.30;;
23060;SDS011;11698;47.690;9.132;2022-10-14T07:10:33;5.40;;;3.40;;
23060;SDS011;11698;47.690;9.132;2022-10-14T07:12:59;4.50;;;2.92;;
23060;SDS011;11698;47.690;9.132;2022-10-14T07:15:25;6.38;;;3.58;;
23060;SDS011;11698;47.690;9.132;2022-10-14T07:17:51;4.60;;;3.33;;
23060;SDS011;11698;47.690;9.132;2022-10-14T07:20:17;4.88;;;3.22;;
23060;SDS011;11698;47.690;9.132;2022-10-14T07:22:44;5.22;;;3.00;;
23060;SDS011;11698;47.690;9.132;2022-10-14T07:25:10;5.13;;;2.90;;
23060;SDS011;11698;47.690;9.132;2022-10-14T07:27:36;6.17;;;2.80;;
23060;SDS011;11698;47.690;9.132;2022-10-14T07:30:03;4.03;;;2.70;;
23060;SDS011;11698;47.690;9.132;2022-10-14T07:32:29;4.68;;;3.03;;
23060;SDS011;11698;47.690;9.132;2022-10-14T07:34:55;6.55;;;3.15;;
23060;SDS011;11698;47.690;9.132;2022-10-14T07:37:21;5.68;;;2.78;;
23060;SDS011;11698;47.690;9.132;2022-10-14T07:39:47;3.38;;;2.60;;
23060;SDS011;11698;47.690;9.132;2022-10-14T07:42:13;4.70;;;2.80;;
23060;SDS011;11698;47.690;9.132;2022-10-14T07:44:40;4.00;;;2.83;;
23060;SDS011;11698;47.690;9.132;2022-10-14T07:47:06;3.60;;;2.65;;
23060;SDS011;11698;47.690;9.132;2022-10-14T07:49:32;4.15;;;2.63;;
23060;SDS011;11698;47.690;9.132;2022-10-14T07:51:58;4.22;;;2.63;;
23060;SDS011;11698;47.690;9.132;2022-10-14T07:54:25;2.60;;;2.40;;
23060;SDS011;11698;47.690;9.132;2022-10-14T07:56:54;4.40;;;2.77;;
23060;SDS011;11698;47.690;9.132;2022-10-14T07:59:22;4.55;;;2.63;;
23060;SDS011;11698;47.690;9.132;2022-10-14T08:01:49;4.47;;;2.97;;
23060;SDS011;11698;47.690;9.132;2022-10-14T08:04:15;4.93;;;2.53;;
23060;SDS011;11698;47.690;9.132;2022-10-14T08:06:41;3.30;;;2.70;;
23060;SDS011;11698;47.690;9.132;2022-10-14T08:09:08;4.03;;;2.63;;
23060;SDS011;11698;47.690;9.132;2022-10-14T08:11:34;3.92;;;2.70;;
23060;SDS011;11698;47.690;9.132;2022-10-14T08:14:00;4.28;;;2.75;;
23060;SDS011;11698;47.690;9.132;2022-10-14T08:16:27;4.03;;;2.60;;
23060;SDS011;11698;47.690;9.132;2022-10-14T08:18:54;3.60;;;2.67;;
23060;SDS011;11698;47.690;9.132;2022-10-14T08:21:21;3.58;;;2.80;;
23060;SDS011;11698;47.690;9.132;2022-10-14T08:23:47;5.13;;;2.78;;
23060;SDS011;11698;47.690;9.132;2022-10-14T08:26:17;4.32;;;2.67;;
23060;SDS011;11698;47.690;9.132;2022-10-14T08:28:44;3.87;;;3.23;;
23060;SDS011;11698;47.690;9.132;2022-10-14T08:31:10;4.60;;;2.80;;
23060;SDS011;11698;47.690;9.132;2022-10-14T08:33:36;4.32;;;2.60;;
23060;SDS011;11698;47.690;9.132;2022-10-14T08:36:02;3.42;;;2.70;;
23060;SDS011;11698;47.690;9.132;2022-10-14T08:38:28;4.57;;;3.00;;
23060;SDS011;11698;47.690;9.132;2022-10-14T08:43:48;4.25;;;2.95;;
23060;SDS011;11698;47.690;9.132;2022-10-14T08:49:11;4.25;;;2.80;;
23060;SDS011;11698;47.690;9.132;2022-10-14T08:51:39;4.60;;;2.90;;
23060;SDS011;11698;47.690;9.132;2022-10-14T08:54:09;4.60;;;2.60;;
23060;SDS011;11698;47.690;9.132;2022-10-14T08:56:37;3.77;;;2.90;;
23060;SDS011;11698;47.690;9.132;2022-10-14T08:59:08;4.10;;;2.80;;
23060;SDS011;11698;47.690;9.132;2022-10-14T09:01:39;3.65;;;2.70;;
23060;SDS011;11698;47.690;9.132;2022-10-14T09:04:11;4.95;;;2.58;;
23060;SDS011;11698;47.690;9.132;2022-10-14T09:06:39;3.20;;;2.60;;
23060;SDS011;11698;47.690;9.132;2022-10-14T09:09:08;7.13;;;3.70;;
23060;SDS011;11698;47.690;9.132;2022-10-14T09:11:36;7.87;;;4.47;;
23060;SDS011;11698;47.690;9.132;2022-10-14T09:14:05;5.75;;;4.40;;
23060;SDS011;11698;47.690;9.132;2022-10-14T09:16:33;6.18;;;4.18;;
23060;SDS011;11698;47.690;9.132;2022-10-14T09:19:01;7.55;;;4.95;;
23060;SDS011;11698;47.690;9.132;2022-10-14T09:24:00;6.03;;;4.27;;
23060;SDS011;11698;47.690;9.132;2022-10-14T09:26:29;6.88;;;4.57;;
23060;SDS011;11698;47.690;9.132;2022-10-14T09:28:56;5.60;;;4.53;;
23060;SDS011;11698;47.690;9.132;2022-10-14T09:31:22;6.03;;;4.25;;
23060;SDS011;11698;47.690;9.132;2022-10-14T09:33:48;9.00;;;4.72;;
23060;SDS011;11698;47.690;9.132;2022-10-14T09:36:16;6.68;;;4.40;;
23060;SDS011;11698;47.690;9.132;2022-10-14T09:38:43;7.93;;;4.72;;
23060;SDS011;11698;47.690;9.132;2022-10-14T09:41:10;8.38;;;4.75;;
23060;SDS011;11698;47.690;9.132;2022-10-14T09:43:37;6.28;;;4.60;;
23060;SDS011;11698;47.690;9.132;2022-10-14T09:46:04;7.70;;;4.60;;
23060;SDS011;11698;47.690;9.132;2022-10-14T09:51:01;7.82;;;4.82;;
23060;SDS011;11698;47.690;9.132;2022-10-14T09:53:29;7.78;;;4.68;;
23060;SDS011;11698;47.690;9.132;2022-10-14T09:56:03;7.10;;;4.47;;
23060;SDS011;11698;47.690;9.132;2022-10-14T10:01:12;8.50;;;5.18;;
23060;SDS011;11698;47.690;9.132;2022-10-14T10:03:39;7.05;;;4.97;;
23060;SDS011;11698;47.690;9.132;2022-10-14T10:06:07;8.68;;;4.90;;
23060;SDS011;11698;47.690;9.132;2022-10-14T10:08:38;8.95;;;4.68;;
23060;SDS011;11698;47.690;9.132;2022-10-14T10:11:09;8.45;;;4.80;;
23060;SDS011;11698;47.690;9.132;2022-10-14T10:16:20;6.43;;;3.80;;
23060;SDS011;11698;47.690;9.132;2022-10-14T10:18:47;4.85;;;3.58;;
23060;SDS011;11698;47.690;9.132;2022-10-14T10:21:15;6.60;;;3.80;;
23060;SDS011;11698;47.690;9.132;2022-10-14T10:23:52;8.15;;;4.95;;
23060;SDS011;11698;47.690;9.132;2022-10-14T10:26:20;21.70;;;19.38;;
23060;SDS011;11698;47.690;9.132;2022-10-14T10:28:49;7.10;;;4.35;;
23060;SDS011;11698;47.690;9.132;2022-10-14T10:33:57;4.60;;;3.20;;
23060;SDS011;11698;47.690;9.132;2022-10-14T10:36:30;3.90;;;2.83;;
23060;SDS011;11698;47.690;9.132;2022-10-14T10:39:00;4.20;;;3.30;;
23060;SDS011;11698;47.690;9.132;2022-10-14T10:47:14;4.10;;;2.63;;
23060;SDS011;11698;47.690;9.132;2022-10-14T10:57:09;3.85;;;2.67;;
23060;SDS011;11698;47.690;9.132;2022-10-14T11:02:28;3.35;;;2.17;;
23060;SDS011;11698;47.690;9.132;2022-10-14T11:07:49;3.25;;;1.88;;
23060;SDS011;11698;47.690;9.132;2022-10-14T11:10:53;3.10;;;1.70;;
23060;SDS011;11698;47.690;9.132;2022-10-14T11:16:12;2.80;;;1.70;;
23060;SDS011;11698;47.690;9.132;2022-10-14T11:18:51;3.08;;;1.98;;
23060;SDS011;11698;47.690;9.132;2022-10-14T11:46:45;3.27;;;1.97;;
23060;SDS011;11698;47.690;9.132;2022-10-14T11:49:14;4.40;;;2.03;;
23060;SDS011;11698;47.690;9.132;2022-10-14T11:51:46;3.53;;;1.83;;
23060;SDS011;11698;47.690;9.132;2022-10-14T11:54:15;2.85;;;1.85;;
23060;SDS011;11698;47.690;9.132;2022-10-14T11:56:45;4.68;;;2.08;;
23060;SDS011;11698;47.690;9.132;2022-10-14T11:59:49;3.63;;;2.40;;
23060;SDS011;11698;47.690;9.132;2022-10-14T12:02:19;2.65;;;2.03;;
23060;SDS011;11698;47.690;9.132;2022-10-14T12:07:48;4.32;;;2.20;;
23060;SDS011;11698;47.690;9.132;2022-10-14T12:10:22;3.95;;;2.13;;
23060;SDS011;11698;47.690;9.132;2022-10-14T12:12:50;3.50;;;2.33;;
23060;SDS011;11698;47.690;9.132;2022-10-14T12:15:18;3.35;;;2.10;;
23060;SDS011;11698;47.690;9.132;2022-10-14T12:17:51;4.13;;;2.57;;
23060;SDS011;11698;47.690;9.132;2022-10-14T12:22:52;2.70;;;2.40;;
23060;SDS011;11698;47.690;9.132;2022-10-14T12:25:20;4.22;;;2.65;;
23060;SDS011;11698;47.690;9.132;2022-10-14T12:27:48;3.90;;;2.40;;
23060;SDS011;11698;47.690;9.132;2022-10-14T12:35:49;3.65;;;2.85;;
23060;SDS011;11698;47.690;9.132;2022-10-14T12:38:16;3.95;;;2.63;;
23060;SDS011;11698;47.690;9.132;2022-10-14T12:40:42;7.00;;;2.83;;
23060;SDS011;11698;47.690;9.132;2022-10-14T12:43:19;4.13;;;3.10;;
23060;SDS011;11698;47.690;9.132;2022-10-14T12:45:59;4.70;;;2.80;;
23060;SDS011;11698;47.690;9.132;2022-10-14T12:48:25;5.93;;;3.00;;
23060;SDS011;11698;47.690;9.132;2022-10-14T12:51:25;4.28;;;2.50;;
23060;SDS011;11698;47.690;9.132;2022-10-14T12:54:18;4.18;;;2.40;;
23060;SDS011;11698;47.690;9.132;2022-10-14T12:56:38;5.85;;;2.83;;
23060;SDS011;11698;47.690;9.132;2022-10-14T12:59:07;4.25;;;2.60;;
23060;SDS011;11698;47.690;9.132;2022-10-14T13:01:34;6.90;;;2.90;;
23060;SDS011;11698;47.690;9.132;2022-10-14T13:04:01;4.97;;;2.57;;
23060;SDS011;11698;47.690;9.132;2022-10-14T13:06:30;4.50;;;2.30;;
23060;SDS011;11698;47.690;9.132;2022-10-14T13:11:41;4.75;;;2.40;;
23060;SDS011;11698;47.690;9.132;2022-10-14T13:14:26;3.22;;;2.30;;
23060;SDS011;11698;47.690;9.132;2022-10-14T13:17:00;3.85;;;2.55;;
23060;SDS011;11698;47.690;9.132;2022-10-14T13:21:59;4.60;;;2.50;;
23060;SDS011;11698;47.690;9.132;2022-10-14T13:24:26;2.93;;;2.53;;
23060;SDS011;11698;47.690;9.132;2022-10-14T13:34:13;4.30;;;2.72;;
23060;SDS011;11698;47.690;9.132;2022-10-14T13:36:49;3.80;;;2.90;;
23060;SDS011;11698;47.690;9.132;2022-10-14T13:39:18;3.67;;;2.53;;
23060;SDS011;11698;47.690;9.132;2022-10-14T13:41:44;3.80;;;2.50;;
23060;SDS011;11698;47.690;9.132;2022-10-14T13:44:11;5.20;;;2.90;;
23060;SDS011;11698;47.690;9.132;2022-10-14T13:46:38;4.18;;;2.67;;
23060;SDS011;11698;47.690;9.132;2022-10-14T13:49:06;4.28;;;2.90;;
23060;SDS011;11698;47.690;9.132;2022-10-14T13:54:18;4.97;;;2.80;;
23060;SDS011;11698;47.690;9.132;2022-10-14T13:56:54;4.17;;;2.90;;
23060;SDS011;11698;47.690;9.132;2022-10-14T13:59:24;4.15;;;2.40;;
23060;SDS011;11698;47.690;9.132;2022-10-14T14:01:54;4.25;;;2.53;;
23060;SDS011;11698;47.690;9.132;2022-10-14T14:04:22;3.92;;;2.60;;
23060;SDS011;11698;47.690;9.132;2022-10-14T14:06:48;2.93;;;2.60;;
23060;SDS011;11698;47.690;9.132;2022-10-14T14:09:19;3.60;;;2.50;;
23060;SDS011;11698;47.690;9.132;2022-10-14T14:11:46;3.75;;;2.55;;
23060;SDS011;11698;47.690;9.132;2022-10-14T14:16:39;3.80;;;2.60;;
23060;SDS011;11698;47.690;9.132;2022-10-14T14:19:15;3.88;;;2.53;;
23060;SDS011;11698;47.690;9.132;2022-10-14T14:21:42;4.13;;;2.53;;
23060;SDS011;11698;47.690;9.132;2022-10-14T14:24:15;4.57;;;2.25;;
23060;SDS011;11698;47.690;9.132;2022-10-14T14:26:42;3.43;;;2.60;;
23060;SDS011;11698;47.690;9.132;2022-10-14T14:29:18;3.65;;;2.38;;
23060;SDS011;11698;47.690;9.132;2022-10-14T14:31:45;3.17;;;2.20;;
23060;SDS011;11698;47.690;9.132;2022-10-14T14:34:13;4.15;;;2.58;;
23060;SDS011;11698;47.690;9.132;2022-10-14T14:36:40;4.82;;;2.47;;
23060;SDS011;11698;47.690;9.132;2022-10-14T14:39:14;4.07;;;2.60;;
23060;SDS011;11698;47.690;9.132;2022-10-14T14:41:47;5.05;;;2.28;;
23060;SDS011;11698;47.690;9.132;2022-10-14T14:44:14;3.72;;;2.53;;
23060;SDS011;11698;47.690;9.132;2022-10-14T14:46:41;3.93;;;2.47;;
23060;SDS011;11698;47.690;9.132;2022-10-14T14:49:10;5.33;;;2.63;;
23060;SDS011;11698;47.690;9.132;2022-10-14T14:51:38;3.83;;;2.40;;
23060;SDS011;11698;47.690;9.132;2022-10-14T14:54:05;3.22;;;2.60;;
23060;SDS011;11698;47.690;9.132;2022-10-14T14:56:32;4.93;;;2.55;;
23060;SDS011;11698;47.690;9.132;2022-10-14T14:59:03;3.88;;;2.60;;
23060;SDS011;11698;47.690;9.132;2022-10-14T15:01:31;5.18;;;2.88;;
23060;SDS011;11698;47.690;9.132;2022-10-14T15:03:58;5.47;;;2.57;;
23060;SDS011;11698;47.690;9.132;2022-10-14T15:06:27;3.25;;;2.45;;
23060;SDS011;11698;47.690;9.132;2022-10-14T15:08:54;2.45;;;2.10;;
23060;SDS011;11698;47.690;9.132;2022-10-14T15:11:20;4.60;;;2.87;;
23060;SDS011;11698;47.690;9.132;2022-10-14T15:13:54;7.07;;;2.38;;
23060;SDS011;11698;47.690;9.132;2022-10-14T15:19:12;5.95;;;2.70;;
23060;SDS011;11698;47.690;9.132;2022-10-14T15:21:38;4.28;;;2.50;;
23060;SDS011;11698;47.690;9.132;2022-10-14T15:24:10;4.60;;;2.50;;
23060;SDS011;11698;47.690;9.132;2022-10-14T15:26:36;4.63;;;2.28;;
23060;SDS011;11698;47.690;9.132;2022-10-14T15:31:39;2.70;;;1.60;;
23060;SDS011;11698;47.690;9.132;2022-10-14T15:34:08;2.42;;;1.40;;
23060;SDS011;11698;47.690;9.132;2022-10-14T15:36:39;2.90;;;1.98;;
23060;SDS011;11698;47.690;9.132;2022-10-14T15:39:07;4.33;;;1.67;;
23060;SDS011;11698;47.690;9.132;2022-10-14T15:41:33;1.77;;;1.40;;
23060;SDS011;11698;47.690;9.132;2022-10-14T15:43:59;1.77;;;1.20;;
23060;SDS011;11698;47.690;9.132;2022-10-14T15:46:25;2.95;;;1.33;;
23060;SDS011;11698;47.690;9.132;2022-10-14T15:49:13;2.03;;;1.73;;
23060;SDS011;11698;47.690;9.132;2022-10-14T15:51:40;2.63;;;1.53;;
23060;SDS011;11698;47.690;9.132;2022-10-14T15:54:09;3.00;;;1.40;;
23060;SDS011;11698;47.690;9.132;2022-10-14T15:56:36;2.63;;;1.20;;
23060;SDS011;11698;47.690;9.132;2022-10-14T15:59:03;1.70;;;1.42;;
23060;SDS011;11698;47.690;9.132;2022-10-14T16:01:29;1.90;;;1.27;;
23060;SDS011;11698;47.690;9.132;2022-10-14T16:03:58;3.40;;;1.52;;
23060;SDS011;11698;47.690;9.132;2022-10-14T16:06:24;2.78;;;1.50;;
23060;SDS011;11698;47.690;9.132;2022-10-14T16:08:53;1.70;;;1.20;;
23060;SDS011;11698;47.690;9.132;2022-10-14T16:11:27;2.50;;;1.40;;
23060;SDS011;11698;47.690;9.132;2022-10-14T16:13:53;2.47;;;1.40;;
23060;SDS011;11698;47.690;9.132;2022-10-14T16:16:21;2.60;;;0.93;;
23060;SDS011;11698;47.690;9.132;2022-10-14T16:18:48;2.30;;;1.38;;
23060;SDS011;11698;47.690;9.132;2022-10-14T16:21:15;1.77;;;1.13;;
23060;SDS011;11698;47.690;9.132;2022-10-14T16:23:41;3.05;;;1.20;;
23060;SDS011;11698;47.690;9.132;2022-10-14T16:26:10;1.45;;;1.08;;
23060;SDS011;11698;47.690;9.132;2022-10-14T16:28:37;2.63;;;1.20;;
23060;SDS011;11698;47.690;9.132;2022-10-14T16:31:03;1.80;;;1.00;;
23060;SDS011;11698;47.690;9.132;2022-10-14T16:33:29;2.33;;;1.13;;
23060;SDS011;11698;47.690;9.132;2022-10-14T16:35:56;1.65;;;1.05;;
23060;SDS011;11698;47.690;9.132;2022-10-14T16:38:24;1.77;;;1.13;;
23060;SDS011;11698;47.690;9.132;2022-10-14T16:40:54;4.57;;;1.10;;
23060;SDS011;11698;47.690;9.132;2022-10-14T16:43:20;1.00;;;0.90;;
23060;SDS011;11698;47.690;9.132;2022-10-14T16:45:46;1.58;;;1.00;;
23060;SDS011;11698;47.690;9.132;2022-10-14T16:48:12;1.08;;;0.95;;
23060;SDS011;11698;47.690;9.132;2022-10-14T16:50:38;1.70;;;0.90;;
23060;SDS011;11698;47.690;9.132;2022-10-14T16:53:04;1.40;;;1.00;;
23060;SDS011;11698;47.690;9.132;2022-10-14T16:55:49;2.78;;;1.10;;